Pagrindinis puslapis
METAR-TAF:

METAR-TAF

Oro uostai :

Bisha, Saudo Arabija

platuma: 19-59N, ilguma: 042-37E, Aukštis: 1167 m

Dabartinis oras

Ataskaita buvo paskelbta 45 minutes, ne 10:00 UTC
Vėjas 8 kt iš Rytų
Temperatūra 33°C
Drėgmė 20%
Slėgis 1018 hPa
Matomumas 10 km arba daugiau
Mažai debesys ne aukštis 3000 ft

METAR: OEBH 141000Z 10008KT 9999 FEW030 33/07 Q1018 NOSIG

Laikas: 13:45 (10:45 UTC)

Prognozė

Ataskaita buvo paskelbta 11 valandos ir 45 minutes, ne 23:00 UTC
Prognozė galioja nuo 14 metu 00 UTC su 15 metu 06 UTC
Vėjas 6 kt iš Pietų/Pietryčių
Matomumas 10 km arba daugiau
Mažai debesys ne aukštis 3000 ft
Tapsmas
nuo 14 metu 06 UTC su 14 metu 08 UTC
Vėjas 15 kt iš Rytų
Laikinai
nuo 14 metu 10 UTC su 14 metu 16 UTC
Matomumas: 4000 m
Dulkes pustymas
Tapsmas
nuo 14 metu 20 UTC su 14 metu 22 UTC
Vėjas 3 kt nuo kintamojo kryptimis

TAF: OEBH 132300Z 1400/1506 15006KT 9999 FEW030 BECMG 1406/1408 08015KT TEMPO 1410/1416 4000 BLDU BECMG 1420/1422 VRB03KT

Orai ataskaitas ir orų prognozės (METAR, TAF).

turimą stotys yra geltonos ir raudonos taškus žemėlapyje.

Perkelti pele per norėdami pamatyti stoties vardą.

Tada spustelėkite, norėdami matyti oro stebėjimo ir prognozės.

Norėdami pakeisti žemėlapį: spustelėkite ant žalios mygtukų su juodo kryžiaus žemyn,; žalią mygtuką su brūkšneliu, jei norite nutolinti; arba žalių rodyklių gretimoms žemėlapius.


METAR-TAF: